Time;durP1;ratioP1;P1;durP2;ratioP2;P2;SDS_P1;SDS_P2;PMS_P1;PMS_P2;Temp;Humidity;BMP_temperature;BMP_pressure;BME280_temperature;BME280_humidity;BME280_pressure;Samples;Min_cycle;Max_cycle;Signal;HPM_P1;HPM_P2
2023/04/22 00:01:38;;;;;;;13.00;9.18;;;;;;;5.47;100.00;92798.91;5088776;28;20537;-73
2023/04/22 00:04:06;;;;;;;12.50;9.10;;;;;;;5.42;100.00;92793.59;5088883;28;20044;-73
2023/04/22 00:06:33;;;;;;;11.02;8.07;;;;;;;5.40;100.00;92792.19;5088957;28;20167;-73
2023/04/22 00:08:59;;;;;;;10.75;8.60;;;;;;;5.35;100.00;92795.31;5088853;28;21312;-74
2023/04/22 00:11:27;;;;;;;10.27;8.38;;;;;;;5.30;100.00;92798.44;5088563;28;20746;-73
2023/04/22 00:13:54;;;;;;;12.43;9.25;;;;;;;5.28;100.00;92790.19;5088786;28;20044;-73
2023/04/22 00:16:21;;;;;;;13.07;8.43;;;;;;;5.25;100.00;92792.31;5088453;28;20048;-73
2023/04/22 00:18:48;;;;;;;13.13;8.45;;;;;;;5.18;100.00;92789.72;5088320;28;20066;-73
2023/04/22 00:21:15;;;;;;;12.70;8.80;;;;;;;4.96;100.00;92761.81;5088370;28;20446;-73
2023/04/22 00:23:44;;;;;;;13.05;8.65;;;;;;;5.05;100.00;92793.00;5088542;28;20044;-73
2023/04/22 00:26:11;;;;;;;14.80;9.93;;;;;;;5.05;100.00;92795.53;5088370;28;20131;-73
2023/04/22 00:28:39;;;;;;;22.05;14.02;;;;;;;5.04;100.00;92799.03;5088124;28;20497;-73
2023/04/22 00:31:06;;;;;;;15.80;11.02;;;;;;;4.92;100.00;92788.59;5088104;28;20044;-73
2023/04/22 00:33:33;;;;;;;20.73;10.77;;;;;;;4.94;100.00;92796.81;5087722;28;20833;-73
2023/04/22 00:35:59;;;;;;;14.82;9.57;;;;;;;4.90;100.00;92801.50;5087364;28;20044;-74
2023/04/22 00:38:26;;;;;;;13.13;9.13;;;;;;;4.88;100.00;92807.75;5087696;28;20056;-74
2023/04/22 00:40:53;;;;;;;14.05;9.40;;;;;;;4.79;100.00;92802.78;5088141;28;20040;-74
2023/04/22 00:43:19;;;;;;;13.25;9.18;;;;;;;4.76;100.00;92807.44;5088078;28;20117;-74
2023/04/22 00:45:49;;;;;;;16.33;10.18;;;;;;;4.52;100.00;92771.25;5087691;28;20125;-74
2023/04/22 00:48:15;;;;;;;16.63;9.65;;;;;;;4.64;100.00;92802.09;5087531;28;20052;-74
2023/04/22 00:50:42;;;;;;;13.00;9.70;;;;;;;4.47;100.00;92776.91;5087909;28;20416;-73
2023/04/22 00:53:09;;;;;;;14.07;9.68;;;;;;;4.62;100.00;92797.16;5087918;28;20047;-73
2023/04/22 00:55:36;;;;;;;13.32;9.90;;;;;;;4.64;100.00;92804.63;5087833;28;20047;-73
2023/04/22 00:58:03;;;;;;;14.10;9.98;;;;;;;4.60;100.00;92801.66;5087588;28;20052;-74
2023/04/22 01:00:30;;;;;;;14.93;9.93;;;;;;;4.60;100.00;92804.22;5088195;28;20071;-74
2023/04/22 01:02:58;;;;;;;12.63;9.40;;;;;;;4.58;100.00;92795.94;5087049;28;20044;-74
2023/04/22 01:05:25;;;;;;;13.95;9.35;;;;;;;4.56;100.00;92800.44;5087381;28;20044;-74
2023/04/22 01:07:52;;;;;;;14.48;10.45;;;;;;;4.55;100.00;92801.41;5087707;28;20044;-74
2023/04/22 01:10:19;;;;;;;15.23;10.38;;;;;;;4.55;100.00;92804.72;5087326;28;20036;-74
2023/04/22 01:12:46;;;;;;;14.32;10.10;;;;;;;4.57;100.00;92798.69;5087461;28;20503;-74
2023/04/22 01:15:13;;;;;;;15.82;9.82;;;;;;;4.57;100.00;92798.69;5087682;28;20040;-73
2023/04/22 01:17:42;;;;;;;14.05;10.30;;;;;;;4.51;100.00;92798.47;5086759;28;20052;-73
2023/04/22 01:20:12;;;;;;;15.23;9.43;;;;;;;4.50;100.00;92801.19;5087277;28;20098;-73
2023/04/22 01:22:42;;;;;;;13.95;10.05;;;;;;;4.47;100.00;92799.78;5087662;28;20408;-73
2023/04/22 01:25:11;;;;;;;14.05;9.38;;;;;;;4.35;100.00;92786.75;5087285;28;20105;-73
2023/04/22 01:27:38;;;;;;;14.80;10.07;;;;;;;4.44;100.00;92797.59;5087545;28;20389;-74
2023/04/22 01:30:07;;;;;;;14.77;9.77;;;;;;;4.37;100.00;92784.03;5060627;28;20048;-74
2023/04/22 01:32:33;;;;;;;14.63;9.77;;;;;;;4.45;100.00;92794.09;5086697;28;20492;-74
2023/04/22 01:35:00;;;;;;;14.98;9.85;;;;;;;4.39;100.00;92784.63;5087157;28;20522;-73
2023/04/22 01:37:28;;;;;;;14.73;10.43;;;;;;;4.45;100.00;92804.28;5087287;28;20044;-73
2023/04/22 01:39:55;;;;;;;11.93;9.10;;;;;;;4.41;100.00;92797.97;5086758;28;20040;-73
2023/04/22 01:42:26;;;;;;;15.52;10.68;;;;;;;4.34;100.00;92790.28;5087423;28;20055;-73
2023/04/22 01:44:52;;;;;;;16.52;10.55;;;;;;;4.37;100.00;92796.75;5087568;28;20097;-73
2023/04/22 01:47:19;;;;;;;16.55;11.63;;;;;;;4.33;100.00;92796.34;5089437;28;20040;-73
2023/04/22 01:49:46;;;;;;;15.63;10.90;;;;;;;4.32;100.00;92804.94;5091103;28;20782;-73
2023/04/22 01:52:13;;;;;;;15.18;9.43;;;;;;;4.28;100.00;92799.44;5091504;28;20047;-73
2023/04/22 01:54:41;;;;;;;16.15;11.30;;;;;;;4.32;100.00;92802.38;5091277;28;20043;-73
2023/04/22 01:57:12;;;;;;;16.63;10.77;;;;;;;4.37;100.00;92802.63;5091003;28;20521;-73
2023/04/22 01:59:40;;;;;;;14.88;10.48;;;;;;;4.34;100.00;92797.91;5090852;28;20416;-73
2023/04/22 02:02:07;;;;;;;13.13;10.25;;;;;;;4.30;100.00;92799.22;5090627;28;20040;-73
2023/04/22 02:04:34;;;;;;;17.60;10.48;;;;;;;4.32;100.00;92802.38;5091096;28;20399;-73
2023/04/22 02:07:01;;;;;;;15.90;10.15;;;;;;;4.27;100.00;92797.81;5090944;28;20048;-74
2023/04/22 02:09:27;;;;;;;18.08;10.35;;;;;;;4.22;100.00;92805.22;5090454;28;20050;-73
2023/04/22 02:11:54;;;;;;;15.57;10.05;;;;;;;4.20;100.00;92799.53;5090950;28;20048;-73
2023/04/22 02:14:21;;;;;;;18.02;10.40;;;;;;;4.18;100.00;92803.22;5090636;28;20484;-73
2023/04/22 02:16:49;;;;;;;15.05;9.85;;;;;;;4.15;100.00;92799.28;5090763;28;20044;-73
2023/04/22 02:19:16;;;;;;;17.10;10.15;;;;;;;4.11;100.00;92796.31;5090602;28;20474;-73
2023/04/22 02:21:42;;;;;;;17.30;9.75;;;;;;;4.11;100.00;92798.06;5090725;28;20040;-73
2023/04/22 02:24:09;;;;;;;16.88;10.60;;;;;;;4.04;100.00;92792.94;5090600;28;20101;-72
2023/04/22 02:26:36;;;;;;;16.30;9.52;;;;;;;4.06;100.00;92795.25;5090792;28;20526;-73
2023/04/22 02:29:03;;;;;;;13.80;9.77;;;;;;;4.04;100.00;92797.22;5089997;28;20550;-73
2023/04/22 02:31:30;;;;;;;18.25;10.77;;;;;;;3.80;100.00;92766.09;5090495;28;20048;-73
2023/04/22 02:33:58;;;;;;;14.57;10.15;;;;;;;3.94;100.00;92795.72;5090606;28;20040;-73
2023/04/22 02:36:26;;;;;;;17.20;10.10;;;;;;;3.86;100.00;92795.84;5090233;28;20123;-73
2023/04/22 02:38:53;;;;;;;16.70;10.52;;;;;;;3.81;100.00;92795.59;5090642;28;20140;-73
2023/04/22 02:41:20;;;;;;;21.80;11.32;;;;;;;3.80;100.00;92806.72;5090015;28;20099;-73
2023/04/22 02:43:47;;;;;;;15.38;10.77;;;;;;;3.78;100.00;92804.34;5089866;28;20381;-73
2023/04/22 02:46:14;;;;;;;21.95;10.73;;;;;;;3.77;100.00;92804.53;5090593;28;20044;-73
2023/04/22 02:48:41;;;;;;;17.50;11.23;;;;;;;3.72;100.00;92800.78;5090008;28;20084;-73
2023/04/22 02:51:09;;;;;;;18.33;13.45;;;;;;;3.65;100.00;92804.97;5089998;28;20044;-73
2023/04/22 02:53:36;;;;;;;24.23;14.98;;;;;;;3.63;100.00;92806.91;5089961;28;20488;-73
2023/04/22 02:56:04;;;;;;;22.25;14.00;;;;;;;3.61;100.00;92812.19;5090153;28;20052;-73
2023/04/22 02:58:31;;;;;;;18.45;13.40;;;;;;;3.61;100.00;92807.09;5088986;28;20044;-73
2023/04/22 03:00:58;;;;;;;18.30;13.50;;;;;;;3.46;100.00;92786.78;5089771;28;20105;-73
2023/04/22 03:03:25;;;;;;;18.48;13.88;;;;;;;3.48;100.00;92807.72;5089574;28;20052;-73
2023/04/22 03:05:52;;;;;;;29.20;20.13;;;;;;;3.39;100.00;92813.06;5089872;28;20044;-73
2023/04/22 03:08:20;;;;;;;25.95;17.40;;;;;;;3.45;100.00;92815.69;5085517;28;20056;-73
2023/04/22 03:10:47;;;;;;;21.27;15.85;;;;;;;3.53;100.00;92814.03;5089269;28;20044;-73
2023/04/22 03:13:13;;;;;;;22.90;15.10;;;;;;;3.53;100.00;92819.09;5089236;28;20078;-73
2023/04/22 03:15:40;;;;;;;21.23;14.45;;;;;;;3.53;100.00;92819.91;5089584;28;20044;-73
2023/04/22 03:18:07;;;;;;;22.08;13.85;;;;;;;3.55;100.00;92823.03;5089116;28;20488;-73
2023/04/22 03:20:34;;;;;;;16.10;12.10;;;;;;;3.52;100.00;92820.06;5089405;28;20051;-73
2023/04/22 03:23:01;;;;;;;18.02;11.68;;;;;;;3.52;100.00;92828.47;5089412;28;20056;-73
2023/04/22 03:25:29;;;;;;;19.20;11.93;;;;;;;3.54;100.00;92821.47;5088855;28;20554;-73
2023/04/22 03:27:56;;;;;;;19.27;10.85;;;;;;;3.52;100.00;92822.59;5088642;28;20044;-73
2023/04/22 03:30:23;;;;;;;20.05;12.20;;;;;;;3.60;100.00;92830.13;5089170;28;20044;-73
2023/04/22 03:32:51;;;;;;;17.48;11.60;;;;;;;3.70;100.00;92832.41;5088753;28;20048;-73
2023/04/22 03:35:18;;;;;;;17.73;11.18;;;;;;;3.56;100.00;92829.69;5089269;28;20585;-73
2023/04/22 03:37:44;;;;;;;20.58;12.77;;;;;;;3.63;100.00;92845.03;5088337;28;20044;-73
2023/04/22 03:40:12;;;;;;;21.02;12.35;;;;;;;3.59;100.00;92847.13;5088890;28;20044;-73
2023/04/22 03:42:40;;;;;;;17.83;12.10;;;;;;;3.54;100.00;92848.59;5088236;28;20052;-74
2023/04/22 03:45:07;;;;;;;18.40;12.55;;;;;;;3.51;100.00;92839.59;5088526;28;20044;-73
2023/04/22 03:47:34;;;;;;;17.80;12.27;;;;;;;3.57;100.00;92845.72;5089182;28;20043;-73
2023/04/22 03:50:01;;;;;;;20.20;12.30;;;;;;;3.64;100.00;92845.78;5088458;28;20048;-73
2023/04/22 03:52:27;;;;;;;20.75;13.10;;;;;;;3.70;100.00;92852.75;5081440;28;20389;-73
2023/04/22 03:54:54;;;;;;;20.05;12.52;;;;;;;3.73;100.00;92843.00;5088793;28;20083;-73
2023/04/22 03:57:21;;;;;;;22.40;13.25;;;;;;;3.74;100.00;92843.78;5087105;28;20052;-73
2023/04/22 03:59:49;;;;;;;15.30;10.32;;;;;;;3.75;100.00;92858.06;5087918;28;20492;-73
2023/04/22 04:02:15;;;;;;;16.45;10.52;;;;;;;3.73;100.00;92857.44;5088334;28;20097;-73
2023/04/22 04:04:43;;;;;;;17.13;10.55;;;;;;;3.80;100.00;92855.00;5073045;28;20044;-73
2023/04/22 04:07:09;;;;;;;14.95;9.85;;;;;;;3.80;100.00;92860.09;5086600;28;20182;-73
2023/04/22 04:09:36;;;;;;;15.23;10.13;;;;;;;3.83;100.00;92854.63;5077003;28;20044;-73
2023/04/22 04:12:03;;;;;;;18.20;10.50;;;;;;;3.81;100.00;92856.56;5085485;28;20055;-73
2023/04/22 04:14:30;;;;;;;17.73;10.73;;;;;;;3.85;100.00;92860.34;5088174;28;20474;-73
2023/04/22 04:16:58;;;;;;;18.02;12.27;;;;;;;3.89;100.00;92859.00;5087700;28;20093;-73
2023/04/22 04:19:25;;;;;;;16.48;12.10;;;;;;;3.92;100.00;92860.41;5087639;28;20556;-73
2023/04/22 04:21:52;;;;;;;21.92;13.40;;;;;;;3.99;100.00;92863.84;5086680;28;20040;-73
2023/04/22 04:24:19;;;;;;;18.98;12.90;;;;;;;4.07;100.00;92868.81;5087718;28;20504;-73
2023/04/22 04:26:46;;;;;;;19.17;11.80;;;;;;;4.05;100.00;92860.56;5087149;28;20056;-73
2023/04/22 04:29:13;;;;;;;32.17;15.05;;;;;;;4.10;100.00;92873.53;5061388;28;20051;-73
2023/04/22 04:31:40;;;;;;;18.58;12.80;;;;;;;4.12;100.00;92870.81;5087471;28;20043;-72
2023/04/22 04:34:08;;;;;;;24.05;13.90;;;;;;;4.05;100.00;92868.19;5086318;28;20052;-73
2023/04/22 04:36:34;;;;;;;23.70;14.10;;;;;;;4.13;100.00;92875.72;5078722;28;20093;-72
2023/04/22 04:39:01;;;;;;;24.88;14.88;;;;;;;4.25;100.00;92880.34;5087340;28;20051;-72
2023/04/22 04:41:28;;;;;;;23.92;14.10;;;;;;;4.18;100.00;92864.22;5083219;28;20040;-72
2023/04/22 04:43:55;;;;;;;23.33;14.55;;;;;;;4.28;100.00;92870.63;5085621;28;20112;-72
2023/04/22 04:46:22;;;;;;;26.70;16.33;;;;;;;4.45;100.00;92882.31;5087768;28;20543;-73
2023/04/22 04:48:49;;;;;;;35.58;19.83;;;;;;;4.54;100.00;92892.19;5086039;28;20044;-72
2023/04/22 04:51:17;;;;;;;28.52;17.73;;;;;;;4.57;100.00;92878.31;5080691;28;20048;-72
2023/04/22 04:53:44;;;;;;;26.38;14.55;;;;;;;4.76;100.00;92891.41;5077973;28;20441;-73
2023/04/22 04:56:12;;;;;;;21.17;13.85;;;;;;;4.74;100.00;92871.25;5083821;28;20048;-73
2023/04/22 04:58:39;;;;;;;23.63;13.40;;;;;;;5.04;100.00;92891.47;5070407;28;20424;-73
2023/04/22 05:01:06;;;;;;;21.00;12.85;;;;;;;5.20;100.00;92892.97;5087056;28;20051;-73
2023/04/22 05:03:33;;;;;;;23.15;13.38;;;;;;;5.39;100.00;92888.22;5087085;28;20500;-73
2023/04/22 05:05:59;;;;;;;20.85;12.23;;;;;;;5.55;100.00;92892.22;5087318;28;20047;-73
2023/04/22 05:08:27;;;;;;;19.42;11.45;;;;;;;5.81;100.00;92895.94;5086632;28;20048;-73
2023/04/22 05:10:54;;;;;;;18.67;10.77;;;;;;;5.95;100.00;92906.19;5087435;28;20044;-73
2023/04/22 05:13:21;;;;;;;16.42;10.32;;;;;;;6.09;100.00;92899.41;5068953;28;20421;-73
2023/04/22 05:15:48;;;;;;;18.48;11.05;;;;;;;6.23;100.00;92887.50;5073660;28;20040;-73
2023/04/22 05:18:15;;;;;;;17.65;11.23;;;;;;;6.38;100.00;92884.81;5084681;28;20048;-73
2023/04/22 05:20:42;;;;;;;21.48;13.25;;;;;;;6.53;100.00;92889.78;5063959;28;20090;-73
2023/04/22 05:23:08;;;;;;;21.77;13.65;;;;;;;6.66;100.00;92889.78;5079007;28;20491;-73
2023/04/22 05:25:37;;;;;;;24.02;13.98;;;;;;;6.84;100.00;92887.69;5075843;28;20052;-73
2023/04/22 05:28:03;;;;;;;26.42;14.18;;;;;;;6.92;100.00;92878.06;5073317;28;20057;-73
2023/04/22 05:30:30;;;;;;;25.10;15.35;;;;;;;7.17;100.00;92892.81;5085588;28;20056;-74
2023/04/22 05:32:57;;;;;;;23.45;14.15;;;;;;;7.34;100.00;92892.41;5087119;28;20121;-73
2023/04/22 05:35:23;;;;;;;24.73;15.95;;;;;;;7.46;100.00;92895.16;5086565;28;20484;-74
2023/04/22 05:37:50;;;;;;;23.88;15.93;;;;;;;7.57;100.00;92884.34;5084597;28;20097;-76
2023/04/22 05:40:17;;;;;;;29.55;16.58;;;;;;;7.82;100.00;92893.91;5086837;28;20044;-74
2023/04/22 05:42:45;;;;;;;26.00;16.52;;;;;;;8.03;100.00;92899.78;5086191;28;20648;-74
2023/04/22 05:45:12;;;;;;;22.00;14.15;;;;;;;8.20;100.00;92894.97;5087060;28;20114;-74
2023/04/22 05:47:38;;;;;;;20.10;13.65;;;;;;;8.43;100.00;92899.63;5078159;28;20181;-74
2023/04/22 05:50:06;;;;;;;19.25;10.70;;;;;;;8.67;100.00;92896.59;5086741;28;20052;-74
2023/04/22 05:52:33;;;;;;;18.13;11.60;;;;;;;8.88;100.00;92899.84;5085970;28;20044;-74
2023/04/22 05:55:00;;;;;;;17.52;10.85;;;;;;;9.14;100.00;92904.00;5078079;28;20091;-74
2023/04/22 05:57:27;;;;;;;21.25;11.13;;;;;;;9.41;100.00;92903.81;5086161;28;20040;-74
2023/04/22 05:59:55;;;;;;;17.98;9.85;;;;;;;9.67;100.00;92904.56;5086537;28;20056;-74
2023/04/22 06:02:21;;;;;;;15.82;9.48;;;;;;;9.97;100.00;92905.66;5086628;28;20044;-74
2023/04/22 06:04:48;;;;;;;17.05;9.30;;;;;;;10.23;100.00;92906.41;5086402;28;20464;-74
2023/04/22 06:07:15;;;;;;;19.80;10.52;;;;;;;10.46;100.00;92902.41;5085999;28;20085;-74
2023/04/22 06:09:42;;;;;;;26.92;10.95;;;;;;;10.66;100.00;92899.59;5065826;28;20053;-74
2023/04/22 06:12:08;;;;;;;22.83;13.07;;;;;;;10.58;100.00;92900.69;5081815;28;20048;-74
2023/04/22 06:14:35;;;;;;;21.65;13.18;;;;;;;10.98;100.00;92896.00;5086603;28;20504;-75
2023/04/22 06:17:03;;;;;;;28.42;14.43;;;;;;;11.18;100.00;92893.94;5086467;28;20101;-74
2023/04/22 06:19:30;;;;;;;29.70;13.90;;;;;;;11.61;100.00;92899.78;5070290;28;20045;-74
2023/04/22 06:21:57;;;;;;;31.70;13.50;;;;;;;11.86;97.27;92903.16;5077566;28;20484;-74
2023/04/22 06:24:23;;;;;;;26.30;11.70;;;;;;;11.57;94.34;92898.66;5086593;28;20048;-75
2023/04/22 06:26:50;;;;;;;26.90;12.18;;;;;;;11.94;93.34;92899.47;5086395;28;20047;-74
2023/04/22 06:29:17;;;;;;;26.02;11.05;;;;;;;11.86;91.91;92905.72;5079278;28;20160;-74
2023/04/22 06:31:43;;;;;;;39.58;10.65;;;;;;;12.07;92.54;92906.97;5085600;28;20101;-74
2023/04/22 06:34:11;;;;;;;39.33;12.70;;;;;;;11.82;91.90;92905.41;5088744;28;20071;-74
2023/04/22 06:36:38;;;;;;;27.00;11.35;;;;;;;11.95;93.61;92896.63;5089946;28;20458;-74
2023/04/22 06:39:06;;;;;;;32.83;13.10;;;;;;;11.82;94.62;92894.31;5089860;28;20894;-74
2023/04/22 06:41:32;;;;;;;29.10;9.88;;;;;;;11.92;93.12;92904.81;5090074;28;20044;-74
2023/04/22 06:43:59;;;;;;;19.83;7.57;;;;;;;12.07;90.07;92901.81;5089654;28;20454;-74
2023/04/22 06:46:26;;;;;;;29.38;9.30;;;;;;;12.37;91.80;92867.34;5089554;28;20080;-74
2023/04/22 06:48:53;;;;;;;21.55;10.05;;;;;;;12.99;86.80;92908.13;5089500;28;20048;-74
2023/04/22 06:51:21;;;;;;;26.23;9.40;;;;;;;12.91;82.80;92891.28;5089112;28;20044;-74
2023/04/22 06:53:47;;;;;;;33.35;10.70;;;;;;;12.92;82.33;92906.47;5079518;28;20075;-74
2023/04/22 06:56:14;;;;;;;32.83;12.25;;;;;;;13.10;84.31;92887.44;5089881;28;20097;-74
2023/04/22 06:58:44;;;;;;;28.27;12.10;;;;;;;13.70;84.63;92907.72;5089877;28;20522;-74
2023/04/22 07:01:11;;;;;;;31.67;12.02;;;;;;;13.67;80.21;92892.72;5090441;28;20109;-73
2023/04/22 07:03:37;;;;;;;31.63;11.18;;;;;;;13.67;78.73;92912.59;5089795;28;20149;-73
2023/04/22 07:06:05;;;;;;;24.48;9.88;;;;;;;12.79;81.27;92905.00;5088879;28;20553;-72
2023/04/22 07:08:33;;;;;;;20.00;8.88;;;;;;;13.51;80.65;92901.28;5089537;28;20059;-73
2023/04/22 07:11:00;;;;;;;17.55;8.30;;;;;;;14.09;82.92;92898.44;5089453;28;20105;-73
2023/04/22 07:13:26;;;;;;;24.13;8.50;;;;;;;14.52;79.72;92906.44;5085465;28;20447;-73
2023/04/22 07:15:53;;;;;;;15.43;7.40;;;;;;;14.77;75.49;92910.38;5089021;28;20048;-73
2023/04/22 07:18:20;;;;;;;10.73;5.03;;;;;;;15.02;71.54;92915.03;5089078;28;20048;-73
2023/04/22 07:20:46;;;;;;;15.52;5.40;;;;;;;14.80;75.13;92900.31;5085460;28;20109;-73
2023/04/22 07:23:13;;;;;;;17.27;6.95;;;;;;;15.20;71.85;92902.75;5069126;28;20045;-73
2023/04/22 07:25:41;;;;;;;17.88;6.20;;;;;;;14.40;74.09;92906.59;5086511;28;20051;-73
2023/04/22 07:28:08;;;;;;;17.10;8.50;;;;;;;13.67;75.08;92913.38;5077415;28;20095;-73
2023/04/22 07:30:35;;;;;;;14.57;7.82;;;;;;;13.90;77.15;92911.63;5073085;28;20086;-73
2023/04/22 07:33:01;;;;;;;14.07;5.60;;;;;;;13.76;75.92;92903.44;5089081;28;20499;-73
2023/04/22 07:35:28;;;;;;;12.75;5.45;;;;;;;14.21;76.08;92906.09;5088049;28;20036;-73
2023/04/22 07:37:55;;;;;;;12.60;5.68;;;;;;;14.31;75.20;92903.63;5088866;28;20139;-73
2023/04/22 07:40:22;;;;;;;17.98;7.05;;;;;;;14.40;75.49;92893.66;5088746;28;20036;-73
2023/04/22 07:42:50;;;;;;;12.50;5.75;;;;;;;14.42;74.20;92914.88;5088250;28;20074;-73
2023/04/22 07:45:18;;;;;;;11.55;5.53;;;;;;;14.47;72.93;92907.19;5087812;28;20055;-73
2023/04/22 07:47:45;;;;;;;18.98;7.00;;;;;;;14.62;74.97;92887.69;5088057;28;20052;-73
2023/04/22 07:50:11;;;;;;;11.30;4.80;;;;;;;14.63;74.45;92904.78;5087410;28;20052;-74
2023/04/22 07:52:38;;;;;;;18.63;7.90;;;;;;;14.91;74.87;92903.78;5087808;28;20054;-73
2023/04/22 07:55:06;;;;;;;13.70;7.93;;;;;;;14.94;73.49;92910.28;5088279;28;20530;-73
2023/04/22 07:57:37;;;;;;;11.52;5.55;;;;;;;14.91;74.62;92905.59;5088599;28;20093;-74
2023/04/22 08:00:06;;;;;;;9.52;4.28;;;;;;;14.36;73.65;92916.63;5088650;28;20043;-73
2023/04/22 08:02:33;;;;;;;10.35;6.50;;;;;;;14.72;71.91;92902.53;5074490;28;20659;-73
2023/04/22 08:05:00;;;;;;;8.05;4.70;;;;;;;14.91;72.32;92911.53;5086977;28;20109;-73
2023/04/22 08:07:27;;;;;;;8.70;4.78;;;;;;;14.41;72.43;92908.91;5087740;28;20578;-73
2023/04/22 08:09:55;;;;;;;8.10;4.47;;;;;;;14.52;69.31;92912.41;5088495;28;20665;-73
2023/04/22 08:12:22;;;;;;;5.35;3.80;;;;;;;14.55;71.96;92908.56;5055851;28;20557;-73
2023/04/22 08:14:48;;;;;;;8.77;4.30;;;;;;;14.96;72.54;92900.47;5081947;28;20563;-73
2023/04/22 08:17:20;;;;;;;8.05;4.60;;;;;;;15.19;72.82;92899.38;5072437;28;20118;-74
2023/04/22 08:19:47;;;;;;;8.25;4.10;;;;;;;15.60;71.25;92891.16;5077144;28;20044;-73
2023/04/22 08:22:14;;;;;;;8.02;4.45;;;;;;;15.54;70.21;92899.13;5079346;28;20040;-73
2023/04/22 08:24:41;;;;;;;7.20;4.38;;;;;;;14.88;69.34;92901.69;5088102;28;20091;-73
2023/04/22 08:27:07;;;;;;;7.07;4.10;;;;;;;14.66;71.29;92902.47;5084883;28;20093;-73
2023/04/22 08:29:34;;;;;;;7.72;4.82;;;;;;;14.62;70.19;92903.22;5075825;28;20443;-73
2023/04/22 08:32:01;;;;;;;10.13;6.05;;;;;;;14.23;73.22;92899.66;5087632;28;20132;-73
2023/04/22 08:34:29;;;;;;;8.38;4.78;;;;;;;14.27;73.13;92902.56;5087575;28;20048;-73
2023/04/22 08:36:56;;;;;;;6.05;4.40;;;;;;;14.28;70.88;92881.66;5087920;28;20052;-73
2023/04/22 08:39:22;;;;;;;7.35;3.75;;;;;;;15.00;75.99;92882.66;5087529;28;20044;-73
2023/04/22 08:41:50;;;;;;;9.00;4.20;;;;;;;15.48;67.76;92891.34;5087516;28;20048;-73
2023/04/22 08:44:32;;;;;;;11.20;5.38;;;;;;;15.10;65.62;92883.53;5087753;28;20048;-73
2023/04/22 08:47:01;;;;;;;6.63;4.30;;;;;;;15.33;68.98;92889.41;5087259;28;20097;-73
2023/04/22 08:49:30;;;;;;;6.45;4.03;;;;;;;15.93;67.35;92885.97;5087745;28;20117;-73
2023/04/22 08:51:57;;;;;;;6.10;3.70;;;;;;;16.55;65.42;92888.03;5087146;28;20123;-73
2023/04/22 08:54:24;;;;;;;5.90;3.53;;;;;;;17.00;62.32;92879.84;5087272;28;20041;-73
2023/04/22 08:56:52;;;;;;;9.27;4.43;;;;;;;17.17;59.89;92882.25;5087222;28;20040;-73
2023/04/22 08:59:20;;;;;;;7.32;4.15;;;;;;;16.77;58.65;92876.69;5087257;28;20101;-74
2023/04/22 09:01:52;;;;;;;8.48;4.10;;;;;;;15.81;63.85;92878.34;5086840;28;20412;-73
2023/04/22 09:04:19;;;;;;;7.97;4.07;;;;;;;15.92;61.98;92871.41;5060536;28;20500;-73
2023/04/22 09:06:47;;;;;;;8.18;4.68;;;;;;;15.64;62.50;92870.72;5086765;28;20056;-73
2023/04/22 09:09:14;;;;;;;8.02;3.88;;;;;;;14.81;66.02;92873.44;5087098;28;20128;-73
2023/04/22 09:11:41;;;;;;;5.30;3.63;;;;;;;14.36;67.98;92866.75;5073695;28;20097;-73
2023/04/22 09:14:07;;;;;;;6.68;3.83;;;;;;;14.95;68.07;92867.88;5086584;28;20507;-73
2023/04/22 09:16:41;;;;;;;5.30;3.50;;;;;;;15.10;64.51;92872.41;5086438;28;20093;-73
2023/04/22 09:19:11;;;;;;;5.05;3.45;;;;;;;15.13;65.92;92855.63;5087323;28;20052;-73
2023/04/22 09:21:39;;;;;;;7.60;3.30;;;;;;;15.55;60.36;92865.22;5079740;28;20044;-73
2023/04/22 09:24:09;;;;;;;13.55;6.22;;;;;;;15.99;58.57;92866.81;5087190;28;20484;-73
2023/04/22 09:26:40;;;;;;;6.25;3.22;;;;;;;16.08;58.44;92851.59;5080332;28;20087;-73
2023/04/22 09:29:08;;;;;;;7.38;3.95;;;;;;;15.92;57.04;92855.09;5074912;28;20132;-73
2023/04/22 09:31:36;;;;;;;5.65;2.60;;;;;;;15.87;53.43;92837.72;5086221;28;20091;-73
2023/04/22 09:34:04;;;;;;;5.90;2.72;;;;;;;16.65;56.39;92851.78;5086756;28;20135;-73
2023/04/22 09:36:36;;;;;;;4.55;2.30;;;;;;;17.02;50.27;92850.00;5086114;28;20134;-73
2023/04/22 09:39:05;;;;;;;7.13;2.92;;;;;;;16.24;54.09;92843.88;5087200;28;20040;-73
2023/04/22 09:41:34;;;;;;;3.92;2.85;;;;;;;16.60;51.70;92849.16;5086249;28;20064;-73
2023/04/22 09:44:05;;;;;;;5.35;3.17;;;;;;;17.37;56.34;92821.75;5084446;28;20048;-73
2023/04/22 09:46:33;;;;;;;7.40;3.28;;;;;;;17.93;51.67;92838.28;5076052;28;20093;-73
2023/04/22 09:49:01;;;;;;;6.45;3.55;;;;;;;17.88;53.60;92831.25;5086915;28;20048;-73
2023/04/22 09:51:29;;;;;;;4.28;2.97;;;;;;;17.82;52.38;92834.13;5086635;28;20108;-74
2023/04/22 09:54:02;;;;;;;5.57;2.83;;;;;;;17.99;51.99;92823.44;5086711;28;20044;-73
2023/04/22 09:56:51;;;;;;;6.55;2.95;;;;;;;17.28;52.54;92824.09;5086417;28;20048;-73
2023/04/22 09:59:21;;;;;;;7.82;3.25;;;;;;;16.77;52.55;92830.00;5086321;28;20094;-73
2023/04/22 10:01:49;;;;;;;5.85;3.17;;;;;;;15.93;55.69;92820.41;5085585;28;20500;-73
2023/04/22 10:04:20;;;;;;;6.57;3.30;;;;;;;15.55;54.54;92813.47;5086668;28;20492;-73
2023/04/22 10:06:50;;;;;;;7.03;2.78;;;;;;;16.16;54.29;92814.03;5080012;28;20528;-73
2023/04/22 10:09:19;;;;;;;7.65;3.00;;;;;;;16.67;52.39;92817.81;5079296;28;20044;-73
2023/04/22 10:11:47;;;;;;;5.80;2.70;;;;;;;16.42;50.13;92822.69;5088546;28;20056;-73
2023/04/22 10:14:14;;;;;;;8.10;3.00;;;;;;;16.65;50.52;92805.09;5081264;28;20381;-73
2023/04/22 10:16:43;;;;;;;5.30;3.50;;;;;;;17.42;51.53;92811.38;5082089;28;20044;-73
2023/04/22 10:19:17;;;;;;;5.45;2.78;;;;;;;17.73;48.60;92805.34;5071853;28;20102;-74
2023/04/22 10:21:46;;;;;;;8.80;3.20;;;;;;;17.18;50.44;92793.72;5076873;28;20087;-74
2023/04/22 10:24:16;;;;;;;5.57;2.35;;;;;;;17.42;48.62;92797.59;5090175;28;20393;-73
2023/04/22 10:26:50;;;;;;;6.88;3.17;;;;;;;17.74;51.12;92773.13;5090479;28;20046;-73
2023/04/22 10:29:18;;;;;;;5.40;2.80;;;;;;;17.23;50.12;92790.34;5075062;28;20051;-74
2023/04/22 10:31:51;;;;;;;5.15;3.13;;;;;;;15.86;53.55;92786.94;5082800;28;20049;-73
2023/04/22 10:34:18;;;;;;;5.03;2.88;;;;;;;15.59;53.58;92788.63;5082359;28;20089;-74
2023/04/22 10:36:57;;;;;;;11.88;7.82;;;;;;;15.46;53.39;92792.44;5090209;28;20052;-73
2023/04/22 10:39:25;;;;;;;4.90;3.45;;;;;;;15.71;52.08;92785.06;5089706;28;20044;-74
2023/04/22 10:41:57;;;;;;;8.25;5.78;;;;;;;15.22;52.90;92759.19;5089550;28;20045;-74
2023/04/22 10:44:29;;;;;;;7.57;3.75;;;;;;;15.47;56.23;92786.22;5089764;28;20086;-73
2023/04/22 10:47:00;;;;;;;4.95;3.22;;;;;;;15.47;56.26;92778.47;5089575;28;20080;-74
2023/04/22 10:49:30;;;;;;;10.15;3.50;;;;;;;15.56;57.50;92778.00;5063027;28;20085;-73
2023/04/22 10:51:58;;;;;;;6.53;2.90;;;;;;;15.92;55.58;92775.56;5089588;28;20432;-74
2023/04/22 10:54:57;;;;;;;8.77;3.97;;;;;;;15.98;53.58;92781.59;5089495;28;20052;-74
2023/04/22 10:57:35;;;;;;;7.15;3.20;;;;;;;16.23;52.00;92754.97;5088932;28;20417;-74
2023/04/22 11:00:17;;;;;;;6.95;2.50;;;;;;;16.12;55.14;92769.72;5074245;28;20052;-74
2023/04/22 11:02:45;;;;;;;7.30;2.90;;;;;;;16.52;53.30;92764.13;5089611;28;20040;-74
2023/04/22 11:05:19;;;;;;;3.55;2.35;;;;;;;17.08;54.17;92768.56;5088995;28;20061;-73
2023/04/22 11:07:48;;;;;;;6.07;2.88;;;;;;;16.67;53.40;92774.47;5088381;28;20052;-73
2023/04/22 11:10:32;;;;;;;5.43;3.38;;;;;;;16.50;54.36;92776.53;5089192;28;20044;-74
2023/04/22 11:13:00;;;;;;;6.28;3.10;;;;;;;16.36;53.44;92758.09;5080969;28;20052;-74
2023/04/22 11:15:30;;;;;;;3.88;2.42;;;;;;;16.46;51.95;92773.69;5088752;28;20101;-74
2023/04/22 11:17:57;;;;;;;5.10;2.50;;;;;;;16.56;54.34;92765.13;5089162;28;20093;-75
2023/04/22 11:20:23;;;;;;;7.55;2.83;;;;;;;16.40;53.94;92759.91;5088795;28;20495;-74
2023/04/22 11:22:52;;;;;;;5.07;3.08;;;;;;;16.53;53.05;92774.22;5082076;28;20047;-74
2023/04/22 11:25:20;;;;;;;4.90;2.65;;;;;;;16.96;51.92;92775.81;5088290;28;20557;-73
2023/04/22 11:27:47;;;;;;;6.22;3.10;;;;;;;16.60;52.41;92770.59;5080922;28;20491;-74